Four Marks, United Kingdom
Current Conditions -  °F | °C
As of 8:50 PM on Sunday 23 Nov 2014 (Local Time) from EGVO Reporting Station
Clear Clear  
Wind Chill: 39°   Ceiling: Unl
Heat Index: 43°   Visibility: 6mi
Dew Point: 41°   Wind: 7mph
Humidity: 93%   Direction: 310°NW
Pressure: 30.12"   Gusts: NA
Location:  51.11°N, 1.05°W
Report Text: EGVO 232050Z 31006KT CAVOK 06/05 Q1020 BLU
Loading
Personal Weather Stations






























Interactive Weather Map New forecast layout! Learn more

10-Day Weather Forecast

Advertisements
Track Severe Weather on mobile